sensor_id;sensor_type;location;lat;lon;timestamp;P1;durP1;ratioP1;P2;durP2;ratioP2
19808;SDS011;48538;32.784;-96.802;2024-01-06T00:00:22;17.83;;;9.30;;
19808;SDS011;48538;32.784;-96.802;2024-01-06T00:02:48;19.33;;;10.10;;
19808;SDS011;48538;32.784;-96.802;2024-01-06T00:05:15;22.10;;;8.83;;
19808;SDS011;48538;32.784;-96.802;2024-01-06T00:07:41;14.93;;;9.83;;
19808;SDS011;48538;32.784;-96.802;2024-01-06T00:10:07;14.00;;;9.30;;
19808;SDS011;48538;32.784;-96.802;2024-01-06T00:12:34;15.03;;;9.87;;
19808;SDS011;48538;32.784;-96.802;2024-01-06T00:15:00;11.10;;;8.47;;
19808;SDS011;48538;32.784;-96.802;2024-01-06T00:17:27;12.80;;;9.07;;
19808;SDS011;48538;32.784;-96.802;2024-01-06T00:19:53;17.67;;;8.73;;
19808;SDS011;48538;32.784;-96.802;2024-01-06T00:22:20;13.47;;;9.63;;
19808;SDS011;48538;32.784;-96.802;2024-01-06T00:24:46;12.70;;;8.30;;
19808;SDS011;48538;32.784;-96.802;2024-01-06T00:27:13;12.30;;;8.63;;
19808;SDS011;48538;32.784;-96.802;2024-01-06T00:29:41;15.97;;;9.07;;
19808;SDS011;48538;32.784;-96.802;2024-01-06T00:32:07;12.03;;;8.73;;
19808;SDS011;48538;32.784;-96.802;2024-01-06T00:34:34;14.30;;;9.97;;
19808;SDS011;48538;32.784;-96.802;2024-01-06T00:37:00;16.70;;;11.57;;
19808;SDS011;48538;32.784;-96.802;2024-01-06T00:39:26;15.53;;;9.70;;
19808;SDS011;48538;32.784;-96.802;2024-01-06T00:41:53;13.37;;;11.53;;
19808;SDS011;48538;32.784;-96.802;2024-01-06T00:44:19;13.20;;;9.33;;
19808;SDS011;48538;32.784;-96.802;2024-01-06T00:46:45;11.63;;;8.03;;
19808;SDS011;48538;32.784;-96.802;2024-01-06T00:49:12;16.23;;;10.63;;
19808;SDS011;48538;32.784;-96.802;2024-01-06T00:51:38;12.10;;;9.90;;
19808;SDS011;48538;32.784;-96.802;2024-01-06T00:54:04;13.63;;;8.40;;
19808;SDS011;48538;32.784;-96.802;2024-01-06T00:56:30;12.30;;;8.93;;
19808;SDS011;48538;32.784;-96.802;2024-01-06T00:58:57;14.23;;;9.90;;
19808;SDS011;48538;32.784;-96.802;2024-01-06T01:01:23;11.83;;;8.53;;
19808;SDS011;48538;32.784;-96.802;2024-01-06T01:03:49;16.63;;;11.90;;
19808;SDS011;48538;32.784;-96.802;2024-01-06T01:06:16;13.60;;;9.93;;
19808;SDS011;48538;32.784;-96.802;2024-01-06T01:08:42;11.07;;;8.60;;
19808;SDS011;48538;32.784;-96.802;2024-01-06T01:11:08;14.67;;;9.93;;
19808;SDS011;48538;32.784;-96.802;2024-01-06T01:13:35;15.27;;;10.50;;
19808;SDS011;48538;32.784;-96.802;2024-01-06T01:16:01;12.67;;;9.60;;
19808;SDS011;48538;32.784;-96.802;2024-01-06T01:18:28;16.40;;;11.63;;
19808;SDS011;48538;32.784;-96.802;2024-01-06T01:20:54;15.03;;;11.47;;
19808;SDS011;48538;32.784;-96.802;2024-01-06T01:23:21;14.10;;;10.60;;
19808;SDS011;48538;32.784;-96.802;2024-01-06T01:25:47;15.70;;;11.40;;
19808;SDS011;48538;32.784;-96.802;2024-01-06T01:28:14;18.00;;;12.20;;
19808;SDS011;48538;32.784;-96.802;2024-01-06T01:30:40;13.13;;;9.93;;
19808;SDS011;48538;32.784;-96.802;2024-01-06T01:33:07;9.83;;;8.30;;
19808;SDS011;48538;32.784;-96.802;2024-01-06T01:35:33;15.13;;;9.30;;
19808;SDS011;48538;32.784;-96.802;2024-01-06T01:37:59;26.97;;;20.23;;
19808;SDS011;48538;32.784;-96.802;2024-01-06T01:40:25;13.73;;;10.80;;
19808;SDS011;48538;32.784;-96.802;2024-01-06T01:42:52;13.90;;;10.77;;
19808;SDS011;48538;32.784;-96.802;2024-01-06T01:45:18;23.40;;;16.97;;
19808;SDS011;48538;32.784;-96.802;2024-01-06T01:47:45;22.33;;;16.13;;
19808;SDS011;48538;32.784;-96.802;2024-01-06T01:50:11;18.00;;;12.20;;
19808;SDS011;48538;32.784;-96.802;2024-01-06T01:52:39;13.67;;;8.73;;
19808;SDS011;48538;32.784;-96.802;2024-01-06T01:55:07;20.23;;;11.80;;
19808;SDS011;48538;32.784;-96.802;2024-01-06T01:57:34;28.53;;;21.83;;
19808;SDS011;48538;32.784;-96.802;2024-01-06T02:00:00;20.33;;;15.13;;
19808;SDS011;48538;32.784;-96.802;2024-01-06T02:02:28;15.67;;;11.23;;
19808;SDS011;48538;32.784;-96.802;2024-01-06T02:04:55;17.33;;;13.97;;
19808;SDS011;48538;32.784;-96.802;2024-01-06T02:07:21;18.90;;;11.23;;
19808;SDS011;48538;32.784;-96.802;2024-01-06T02:09:48;16.87;;;11.33;;
19808;SDS011;48538;32.784;-96.802;2024-01-06T02:12:14;14.77;;;10.43;;
19808;SDS011;48538;32.784;-96.802;2024-01-06T02:14:40;15.57;;;10.43;;
19808;SDS011;48538;32.784;-96.802;2024-01-06T02:17:08;14.43;;;10.63;;
19808;SDS011;48538;32.784;-96.802;2024-01-06T02:19:35;14.27;;;10.20;;
19808;SDS011;48538;32.784;-96.802;2024-01-06T02:22:01;21.97;;;14.10;;
19808;SDS011;48538;32.784;-96.802;2024-01-06T02:24:27;21.83;;;16.33;;
19808;SDS011;48538;32.784;-96.802;2024-01-06T02:26:54;17.13;;;13.00;;
19808;SDS011;48538;32.784;-96.802;2024-01-06T02:29:20;51.53;;;36.60;;
19808;SDS011;48538;32.784;-96.802;2024-01-06T02:31:46;64.13;;;45.67;;
19808;SDS011;48538;32.784;-96.802;2024-01-06T02:34:12;38.07;;;27.07;;
19808;SDS011;48538;32.784;-96.802;2024-01-06T02:36:39;25.67;;;18.57;;
19808;SDS011;48538;32.784;-96.802;2024-01-06T02:39:05;25.97;;;18.77;;
19808;SDS011;48538;32.784;-96.802;2024-01-06T02:41:35;14.20;;;10.70;;
19808;SDS011;48538;32.784;-96.802;2024-01-06T02:44:02;15.13;;;10.90;;
19808;SDS011;48538;32.784;-96.802;2024-01-06T02:46:29;19.07;;;13.23;;
19808;SDS011;48538;32.784;-96.802;2024-01-06T02:48:55;22.03;;;16.53;;
19808;SDS011;48538;32.784;-96.802;2024-01-06T02:51:22;17.70;;;12.30;;
19808;SDS011;48538;32.784;-96.802;2024-01-06T02:53:48;16.43;;;10.73;;
19808;SDS011;48538;32.784;-96.802;2024-01-06T02:56:14;217.07;;;86.40;;
19808;SDS011;48538;32.784;-96.802;2024-01-06T02:58:41;195.47;;;79.77;;
19808;SDS011;48538;32.784;-96.802;2024-01-06T03:01:07;30.60;;;16.40;;
19808;SDS011;48538;32.784;-96.802;2024-01-06T03:03:33;15.00;;;11.13;;
19808;SDS011;48538;32.784;-96.802;2024-01-06T03:06:00;18.40;;;13.07;;
19808;SDS011;48538;32.784;-96.802;2024-01-06T03:08:26;22.07;;;15.93;;
19808;SDS011;48538;32.784;-96.802;2024-01-06T03:10:52;20.40;;;14.40;;
19808;SDS011;48538;32.784;-96.802;2024-01-06T03:13:18;18.37;;;12.93;;
19808;SDS011;48538;32.784;-96.802;2024-01-06T03:15:45;24.47;;;17.07;;
19808;SDS011;48538;32.784;-96.802;2024-01-06T03:18:11;18.63;;;15.00;;
19808;SDS011;48538;32.784;-96.802;2024-01-06T03:20:37;21.23;;;15.27;;
19808;SDS011;48538;32.784;-96.802;2024-01-06T03:23:04;22.40;;;17.07;;
19808;SDS011;48538;32.784;-96.802;2024-01-06T03:25:30;23.70;;;17.23;;
19808;SDS011;48538;32.784;-96.802;2024-01-06T03:27:56;27.63;;;17.70;;
19808;SDS011;48538;32.784;-96.802;2024-01-06T03:30:25;18.20;;;12.43;;
19808;SDS011;48538;32.784;-96.802;2024-01-06T03:32:51;13.13;;;10.30;;
19808;SDS011;48538;32.784;-96.802;2024-01-06T03:35:18;17.50;;;10.50;;
19808;SDS011;48538;32.784;-96.802;2024-01-06T03:37:44;10.40;;;8.23;;
19808;SDS011;48538;32.784;-96.802;2024-01-06T03:40:11;13.07;;;9.30;;
19808;SDS011;48538;32.784;-96.802;2024-01-06T03:42:37;12.93;;;9.97;;
19808;SDS011;48538;32.784;-96.802;2024-01-06T03:45:04;13.77;;;9.63;;
19808;SDS011;48538;32.784;-96.802;2024-01-06T03:47:31;15.83;;;11.10;;
19808;SDS011;48538;32.784;-96.802;2024-01-06T03:49:57;14.70;;;12.53;;
19808;SDS011;48538;32.784;-96.802;2024-01-06T03:52:23;12.47;;;9.37;;
19808;SDS011;48538;32.784;-96.802;2024-01-06T03:54:49;14.00;;;8.80;;
19808;SDS011;48538;32.784;-96.802;2024-01-06T03:57:16;11.83;;;8.47;;
19808;SDS011;48538;32.784;-96.802;2024-01-06T03:59:42;19.67;;;13.13;;
19808;SDS011;48538;32.784;-96.802;2024-01-06T04:02:08;12.03;;;8.60;;
19808;SDS011;48538;32.784;-96.802;2024-01-06T04:04:35;10.27;;;8.10;;
19808;SDS011;48538;32.784;-96.802;2024-01-06T04:07:01;10.17;;;8.43;;
19808;SDS011;48538;32.784;-96.802;2024-01-06T04:09:27;15.03;;;9.33;;
19808;SDS011;48538;32.784;-96.802;2024-01-06T04:11:54;11.73;;;8.17;;
19808;SDS011;48538;32.784;-96.802;2024-01-06T04:14:20;11.30;;;8.43;;
19808;SDS011;48538;32.784;-96.802;2024-01-06T04:16:46;14.07;;;9.37;;
19808;SDS011;48538;32.784;-96.802;2024-01-06T04:19:13;12.23;;;9.43;;
19808;SDS011;48538;32.784;-96.802;2024-01-06T04:21:40;15.37;;;9.97;;
19808;SDS011;48538;32.784;-96.802;2024-01-06T04:24:06;16.53;;;11.30;;
19808;SDS011;48538;32.784;-96.802;2024-01-06T04:26:33;74.13;;;35.47;;
19808;SDS011;48538;32.784;-96.802;2024-01-06T04:29:00;23.57;;;13.87;;
19808;SDS011;48538;32.784;-96.802;2024-01-06T04:31:26;16.60;;;10.60;;
19808;SDS011;48538;32.784;-96.802;2024-01-06T04:33:52;15.03;;;10.30;;
19808;SDS011;48538;32.784;-96.802;2024-01-06T04:36:18;15.47;;;10.27;;
19808;SDS011;48538;32.784;-96.802;2024-01-06T04:38:45;19.00;;;10.57;;
19808;SDS011;48538;32.784;-96.802;2024-01-06T04:41:11;14.33;;;9.97;;
19808;SDS011;48538;32.784;-96.802;2024-01-06T04:43:37;15.77;;;10.67;;
19808;SDS011;48538;32.784;-96.802;2024-01-06T04:46:04;18.17;;;10.67;;
19808;SDS011;48538;32.784;-96.802;2024-01-06T04:48:30;16.67;;;10.93;;
19808;SDS011;48538;32.784;-96.802;2024-01-06T04:50:56;14.60;;;9.70;;
19808;SDS011;48538;32.784;-96.802;2024-01-06T04:53:23;16.73;;;10.93;;
19808;SDS011;48538;32.784;-96.802;2024-01-06T04:55:49;14.83;;;9.83;;
19808;SDS011;48538;32.784;-96.802;2024-01-06T04:58:15;17.60;;;11.00;;
19808;SDS011;48538;32.784;-96.802;2024-01-06T05:00:42;15.37;;;8.93;;
19808;SDS011;48538;32.784;-96.802;2024-01-06T05:03:08;12.00;;;7.67;;
19808;SDS011;48538;32.784;-96.802;2024-01-06T05:05:34;14.53;;;9.27;;
19808;SDS011;48538;32.784;-96.802;2024-01-06T05:08:00;15.40;;;8.73;;
19808;SDS011;48538;32.784;-96.802;2024-01-06T05:10:27;25.30;;;11.73;;
19808;SDS011;48538;32.784;-96.802;2024-01-06T05:12:53;14.13;;;8.80;;
19808;SDS011;48538;32.784;-96.802;2024-01-06T05:15:19;15.80;;;8.70;;
19808;SDS011;48538;32.784;-96.802;2024-01-06T05:17:46;17.00;;;9.80;;
19808;SDS011;48538;32.784;-96.802;2024-01-06T05:20:12;18.07;;;10.03;;
19808;SDS011;48538;32.784;-96.802;2024-01-06T05:22:38;10.00;;;7.00;;
19808;SDS011;48538;32.784;-96.802;2024-01-06T05:25:05;13.23;;;8.60;;
19808;SDS011;48538;32.784;-96.802;2024-01-06T05:27:31;14.20;;;7.57;;
19808;SDS011;48538;32.784;-96.802;2024-01-06T05:29:57;12.47;;;8.30;;
19808;SDS011;48538;32.784;-96.802;2024-01-06T05:32:24;9.87;;;7.10;;
19808;SDS011;48538;32.784;-96.802;2024-01-06T05:34:50;12.90;;;8.00;;
19808;SDS011;48538;32.784;-96.802;2024-01-06T05:37:17;17.27;;;9.07;;
19808;SDS011;48538;32.784;-96.802;2024-01-06T05:39:43;15.20;;;8.77;;
19808;SDS011;48538;32.784;-96.802;2024-01-06T05:42:09;15.80;;;8.87;;
19808;SDS011;48538;32.784;-96.802;2024-01-06T05:44:42;15.10;;;9.37;;
19808;SDS011;48538;32.784;-96.802;2024-01-06T05:47:08;16.90;;;9.53;;
19808;SDS011;48538;32.784;-96.802;2024-01-06T05:49:34;16.57;;;8.27;;
19808;SDS011;48538;32.784;-96.802;2024-01-06T05:52:02;22.27;;;13.73;;
19808;SDS011;48538;32.784;-96.802;2024-01-06T05:54:28;16.47;;;10.10;;
19808;SDS011;48538;32.784;-96.802;2024-01-06T05:56:55;20.00;;;10.57;;
19808;SDS011;48538;32.784;-96.802;2024-01-06T05:59:22;21.60;;;12.63;;
19808;SDS011;48538;32.784;-96.802;2024-01-06T06:01:48;16.17;;;7.90;;
19808;SDS011;48538;32.784;-96.802;2024-01-06T06:04:14;27.97;;;14.90;;
19808;SDS011;48538;32.784;-96.802;2024-01-06T06:06:41;15.53;;;9.10;;
19808;SDS011;48538;32.784;-96.802;2024-01-06T06:09:07;15.37;;;8.80;;
19808;SDS011;48538;32.784;-96.802;2024-01-06T06:11:35;15.97;;;9.43;;
19808;SDS011;48538;32.784;-96.802;2024-01-06T06:14:02;16.43;;;9.43;;
19808;SDS011;48538;32.784;-96.802;2024-01-06T06:16:28;12.43;;;7.77;;
19808;SDS011;48538;32.784;-96.802;2024-01-06T06:18:55;15.37;;;8.60;;
19808;SDS011;48538;32.784;-96.802;2024-01-06T06:21:21;15.83;;;8.77;;
19808;SDS011;48538;32.784;-96.802;2024-01-06T06:23:47;19.37;;;10.90;;
19808;SDS011;48538;32.784;-96.802;2024-01-06T06:26:14;12.57;;;7.37;;
19808;SDS011;48538;32.784;-96.802;2024-01-06T06:28:41;12.10;;;8.27;;
19808;SDS011;48538;32.784;-96.802;2024-01-06T06:31:07;11.73;;;6.97;;
19808;SDS011;48538;32.784;-96.802;2024-01-06T06:33:34;10.93;;;6.90;;
19808;SDS011;48538;32.784;-96.802;2024-01-06T06:36:00;10.07;;;6.77;;
19808;SDS011;48538;32.784;-96.802;2024-01-06T06:38:29;11.30;;;6.23;;
19808;SDS011;48538;32.784;-96.802;2024-01-06T06:40:55;13.87;;;8.13;;
19808;SDS011;48538;32.784;-96.802;2024-01-06T06:43:22;12.23;;;6.77;;
19808;SDS011;48538;32.784;-96.802;2024-01-06T06:45:48;11.33;;;7.43;;
19808;SDS011;48538;32.784;-96.802;2024-01-06T06:48:14;14.77;;;9.10;;
19808;SDS011;48538;32.784;-96.802;2024-01-06T06:50:41;13.13;;;8.17;;
19808;SDS011;48538;32.784;-96.802;2024-01-06T06:53:07;14.80;;;9.33;;
19808;SDS011;48538;32.784;-96.802;2024-01-06T06:55:34;13.80;;;6.80;;
19808;SDS011;48538;32.784;-96.802;2024-01-06T06:58:02;14.70;;;8.90;;
19808;SDS011;48538;32.784;-96.802;2024-01-06T07:00:30;6.87;;;5.07;;
19808;SDS011;48538;32.784;-96.802;2024-01-06T07:02:56;6.40;;;4.50;;
19808;SDS011;48538;32.784;-96.802;2024-01-06T07:05:23;6.87;;;4.33;;
19808;SDS011;48538;32.784;-96.802;2024-01-06T07:07:49;5.77;;;4.70;;
19808;SDS011;48538;32.784;-96.802;2024-01-06T07:10:15;7.60;;;5.23;;
19808;SDS011;48538;32.784;-96.802;2024-01-06T07:12:42;9.63;;;6.20;;
19808;SDS011;48538;32.784;-96.802;2024-01-06T07:15:08;6.03;;;4.60;;
19808;SDS011;48538;32.784;-96.802;2024-01-06T07:17:37;7.67;;;4.27;;
19808;SDS011;48538;32.784;-96.802;2024-01-06T07:20:05;6.87;;;4.57;;
19808;SDS011;48538;32.784;-96.802;2024-01-06T07:22:32;9.30;;;5.47;;
19808;SDS011;48538;32.784;-96.802;2024-01-06T07:25:02;8.07;;;5.13;;
19808;SDS011;48538;32.784;-96.802;2024-01-06T07:27:28;10.27;;;7.03;;
19808;SDS011;48538;32.784;-96.802;2024-01-06T07:29:54;9.80;;;6.67;;
19808;SDS011;48538;32.784;-96.802;2024-01-06T07:32:22;18.97;;;10.27;;
19808;SDS011;48538;32.784;-96.802;2024-01-06T07:34:48;12.77;;;7.73;;
19808;SDS011;48538;32.784;-96.802;2024-01-06T07:37:14;13.10;;;7.17;;
19808;SDS011;48538;32.784;-96.802;2024-01-06T07:39:41;10.77;;;5.67;;
19808;SDS011;48538;32.784;-96.802;2024-01-06T07:42:07;13.43;;;6.77;;
19808;SDS011;48538;32.784;-96.802;2024-01-06T07:44:34;12.27;;;7.37;;
19808;SDS011;48538;32.784;-96.802;2024-01-06T07:47:00;12.77;;;7.30;;
19808;SDS011;48538;32.784;-96.802;2024-01-06T07:49:27;13.27;;;7.87;;
19808;SDS011;48538;32.784;-96.802;2024-01-06T07:51:53;8.73;;;5.13;;
19808;SDS011;48538;32.784;-96.802;2024-01-06T07:54:20;10.03;;;6.73;;
19808;SDS011;48538;32.784;-96.802;2024-01-06T07:56:46;5.07;;;3.63;;
19808;SDS011;48538;32.784;-96.802;2024-01-06T07:59:12;5.63;;;3.80;;
19808;SDS011;48538;32.784;-96.802;2024-01-06T08:01:39;5.57;;;4.13;;
19808;SDS011;48538;32.784;-96.802;2024-01-06T08:04:08;4.63;;;3.67;;
19808;SDS011;48538;32.784;-96.802;2024-01-06T08:06:34;8.27;;;4.43;;
19808;SDS011;48538;32.784;-96.802;2024-01-06T08:09:01;7.00;;;4.00;;
19808;SDS011;48538;32.784;-96.802;2024-01-06T08:11:28;7.30;;;4.33;;
19808;SDS011;48538;32.784;-96.802;2024-01-06T08:13:54;5.73;;;4.23;;
19808;SDS011;48538;32.784;-96.802;2024-01-06T08:16:21;3.53;;;2.87;;
19808;SDS011;48538;32.784;-96.802;2024-01-06T08:18:47;3.03;;;2.77;;
19808;SDS011;48538;32.784;-96.802;2024-01-06T08:21:14;4.13;;;3.67;;
19808;SDS011;48538;32.784;-96.802;2024-01-06T08:23:40;7.83;;;5.33;;
19808;SDS011;48538;32.784;-96.802;2024-01-06T08:26:06;4.03;;;3.30;;
19808;SDS011;48538;32.784;-96.802;2024-01-06T08:28:33;4.03;;;3.03;;
19808;SDS011;48538;32.784;-96.802;2024-01-06T08:31:00;3.27;;;2.90;;
19808;SDS011;48538;32.784;-96.802;2024-01-06T08:33:26;7.53;;;4.83;;
19808;SDS011;48538;32.784;-96.802;2024-01-06T08:35:52;9.83;;;5.47;;
19808;SDS011;48538;32.784;-96.802;2024-01-06T08:38:19;6.50;;;4.40;;
19808;SDS011;48538;32.784;-96.802;2024-01-06T08:40:47;5.97;;;3.70;;
19808;SDS011;48538;32.784;-96.802;2024-01-06T08:43:15;6.57;;;4.17;;
19808;SDS011;48538;32.784;-96.802;2024-01-06T08:45:43;7.37;;;5.07;;
19808;SDS011;48538;32.784;-96.802;2024-01-06T08:48:09;7.53;;;4.33;;
19808;SDS011;48538;32.784;-96.802;2024-01-06T08:50:37;10.30;;;6.60;;
19808;SDS011;48538;32.784;-96.802;2024-01-06T08:53:03;12.00;;;6.17;;
19808;SDS011;48538;32.784;-96.802;2024-01-06T08:55:30;11.37;;;6.90;;
19808;SDS011;48538;32.784;-96.802;2024-01-06T08:57:56;11.60;;;6.17;;
19808;SDS011;48538;32.784;-96.802;2024-01-06T09:00:22;16.77;;;9.07;;
19808;SDS011;48538;32.784;-96.802;2024-01-06T09:02:49;6.60;;;5.17;;
19808;SDS011;48538;32.784;-96.802;2024-01-06T09:05:15;5.83;;;4.13;;
19808;SDS011;48538;32.784;-96.802;2024-01-06T09:07:41;9.07;;;4.73;;
19808;SDS011;48538;32.784;-96.802;2024-01-06T09:10:08;18.10;;;8.93;;
19808;SDS011;48538;32.784;-96.802;2024-01-06T09:12:35;11.67;;;5.40;;
19808;SDS011;48538;32.784;-96.802;2024-01-06T09:15:01;12.80;;;6.23;;
19808;SDS011;48538;32.784;-96.802;2024-01-06T09:17:27;7.80;;;5.27;;
19808;SDS011;48538;32.784;-96.802;2024-01-06T09:19:54;18.57;;;8.77;;
19808;SDS011;48538;32.784;-96.802;2024-01-06T09:22:20;10.10;;;6.13;;
19808;SDS011;48538;32.784;-96.802;2024-01-06T09:24:46;7.13;;;4.57;;
19808;SDS011;48538;32.784;-96.802;2024-01-06T09:27:13;7.70;;;5.63;;
19808;SDS011;48538;32.784;-96.802;2024-01-06T09:29:40;7.67;;;5.10;;
19808;SDS011;48538;32.784;-96.802;2024-01-06T09:32:06;9.87;;;6.37;;
19808;SDS011;48538;32.784;-96.802;2024-01-06T09:34:33;5.93;;;4.27;;
19808;SDS011;48538;32.784;-96.802;2024-01-06T09:36:59;6.43;;;4.50;;
19808;SDS011;48538;32.784;-96.802;2024-01-06T09:39:25;7.77;;;5.57;;
19808;SDS011;48538;32.784;-96.802;2024-01-06T09:41:52;7.17;;;4.47;;
19808;SDS011;48538;32.784;-96.802;2024-01-06T09:44:21;7.03;;;5.20;;
19808;SDS011;48538;32.784;-96.802;2024-01-06T09:46:48;7.80;;;5.73;;
19808;SDS011;48538;32.784;-96.802;2024-01-06T09:49:19;12.47;;;6.57;;
19808;SDS011;48538;32.784;-96.802;2024-01-06T09:51:49;6.77;;;5.23;;
19808;SDS011;48538;32.784;-96.802;2024-01-06T09:54:21;7.33;;;5.63;;
19808;SDS011;48538;32.784;-96.802;2024-01-06T09:56:49;14.93;;;7.47;;
19808;SDS011;48538;32.784;-96.802;2024-01-06T09:59:16;5.73;;;3.80;;
19808;SDS011;48538;32.784;-96.802;2024-01-06T10:01:44;4.83;;;4.03;;
19808;SDS011;48538;32.784;-96.802;2024-01-06T10:04:11;5.73;;;4.53;;
19808;SDS011;48538;32.784;-96.802;2024-01-06T10:06:37;4.43;;;4.03;;
19808;SDS011;48538;32.784;-96.802;2024-01-06T10:09:03;7.73;;;4.87;;
19808;SDS011;48538;32.784;-96.802;2024-01-06T10:11:30;7.67;;;5.37;;
19808;SDS011;48538;32.784;-96.802;2024-01-06T10:13:56;7.50;;;5.07;;
19808;SDS011;48538;32.784;-96.802;2024-01-06T10:16:23;5.70;;;4.63;;
19808;SDS011;48538;32.784;-96.802;2024-01-06T10:18:49;7.40;;;5.63;;
19808;SDS011;48538;32.784;-96.802;2024-01-06T10:21:15;10.60;;;6.63;;
19808;SDS011;48538;32.784;-96.802;2024-01-06T10:23:43;5.63;;;4.77;;
19808;SDS011;48538;32.784;-96.802;2024-01-06T10:26:13;9.60;;;6.33;;
19808;SDS011;48538;32.784;-96.802;2024-01-06T10:28:40;9.63;;;5.83;;
19808;SDS011;48538;32.784;-96.802;2024-01-06T10:31:07;10.03;;;5.53;;
19808;SDS011;48538;32.784;-96.802;2024-01-06T10:33:34;10.07;;;6.50;;
19808;SDS011;48538;32.784;-96.802;2024-01-06T10:36:01;7.07;;;5.10;;
19808;SDS011;48538;32.784;-96.802;2024-01-06T10:38:28;6.43;;;4.43;;
19808;SDS011;48538;32.784;-96.802;2024-01-06T10:40:58;4.97;;;4.30;;
19808;SDS011;48538;32.784;-96.802;2024-01-06T10:43:28;4.60;;;3.97;;
19808;SDS011;48538;32.784;-96.802;2024-01-06T10:45:57;5.00;;;4.13;;
19808;SDS011;48538;32.784;-96.802;2024-01-06T10:48:32;4.33;;;3.93;;
19808;SDS011;48538;32.784;-96.802;2024-01-06T10:51:00;5.67;;;4.40;;
19808;SDS011;48538;32.784;-96.802;2024-01-06T10:53:33;5.93;;;5.13;;
19808;SDS011;48538;32.784;-96.802;2024-01-06T10:56:04;5.57;;;4.70;;
19808;SDS011;48538;32.784;-96.802;2024-01-06T10:58:36;9.00;;;6.27;;
19808;SDS011;48538;32.784;-96.802;2024-01-06T11:01:08;7.40;;;5.30;;
19808;SDS011;48538;32.784;-96.802;2024-01-06T11:03:38;5.13;;;4.47;;
19808;SDS011;48538;32.784;-96.802;2024-01-06T11:06:05;7.90;;;5.53;;
19808;SDS011;48538;32.784;-96.802;2024-01-06T11:08:36;11.90;;;7.43;;
19808;SDS011;48538;32.784;-96.802;2024-01-06T11:11:16;7.77;;;5.90;;
19808;SDS011;48538;32.784;-96.802;2024-01-06T11:13:43;7.87;;;5.77;;
19808;SDS011;48538;32.784;-96.802;2024-01-06T11:16:10;12.17;;;7.40;;
19808;SDS011;48538;32.784;-96.802;2024-01-06T11:18:38;7.80;;;5.37;;
19808;SDS011;48538;32.784;-96.802;2024-01-06T11:24:29;6.57;;;5.40;;
19808;SDS011;48538;32.784;-96.802;2024-01-06T11:26:51;7.87;;;6.13;;
19808;SDS011;48538;32.784;-96.802;2024-01-06T11:29:20;6.17;;;5.27;;
19808;SDS011;48538;32.784;-96.802;2024-01-06T11:34:50;9.40;;;6.17;;
19808;SDS011;48538;32.784;-96.802;2024-01-06T11:37:34;10.20;;;6.43;;
19808;SDS011;48538;32.784;-96.802;2024-01-06T11:40:03;21.47;;;11.83;;
19808;SDS011;48538;32.784;-96.802;2024-01-06T11:42:34;6.63;;;5.07;;
19808;SDS011;48538;32.784;-96.802;2024-01-06T11:45:04;17.50;;;10.17;;
19808;SDS011;48538;32.784;-96.802;2024-01-06T11:47:31;7.90;;;6.03;;
19808;SDS011;48538;32.784;-96.802;2024-01-06T11:49:58;12.37;;;7.90;;
19808;SDS011;48538;32.784;-96.802;2024-01-06T11:52:26;9.07;;;6.87;;
19808;SDS011;48538;32.784;-96.802;2024-01-06T11:54:54;19.33;;;10.40;;
19808;SDS011;48538;32.784;-96.802;2024-01-06T11:57:21;8.90;;;6.33;;
19808;SDS011;48538;32.784;-96.802;2024-01-06T11:59:47;9.30;;;6.93;;
19808;SDS011;48538;32.784;-96.802;2024-01-06T12:02:17;25.90;;;12.73;;
19808;SDS011;48538;32.784;-96.802;2024-01-06T12:04:53;16.13;;;9.97;;
19808;SDS011;48538;32.784;-96.802;2024-01-06T12:07:19;12.13;;;5.93;;
19808;SDS011;48538;32.784;-96.802;2024-01-06T12:10:00;13.60;;;7.53;;
19808;SDS011;48538;32.784;-96.802;2024-01-06T12:12:27;8.47;;;5.53;;
19808;SDS011;48538;32.784;-96.802;2024-01-06T12:14:53;20.17;;;12.60;;
19808;SDS011;48538;32.784;-96.802;2024-01-06T12:17:20;10.37;;;7.20;;
19808;SDS011;48538;32.784;-96.802;2024-01-06T12:19:47;6.00;;;4.37;;
19808;SDS011;48538;32.784;-96.802;2024-01-06T12:22:14;4.23;;;3.83;;
19808;SDS011;48538;32.784;-96.802;2024-01-06T12:24:41;9.50;;;6.37;;
19808;SDS011;48538;32.784;-96.802;2024-01-06T12:27:08;5.17;;;4.67;;
19808;SDS011;48538;32.784;-96.802;2024-01-06T12:29:38;7.33;;;5.87;;
19808;SDS011;48538;32.784;-96.802;2024-01-06T12:32:06;11.47;;;6.13;;
19808;SDS011;48538;32.784;-96.802;2024-01-06T12:34:34;11.50;;;8.50;;
19808;SDS011;48538;32.784;-96.802;2024-01-06T12:37:01;6.40;;;4.97;;
19808;SDS011;48538;32.784;-96.802;2024-01-06T12:39:28;8.20;;;5.17;;
19808;SDS011;48538;32.784;-96.802;2024-01-06T12:41:56;7.07;;;5.37;;
19808;SDS011;48538;32.784;-96.802;2024-01-06T12:44:23;10.40;;;6.67;;
19808;SDS011;48538;32.784;-96.802;2024-01-06T12:46:49;11.57;;;7.20;;
19808;SDS011;48538;32.784;-96.802;2024-01-06T12:49:17;8.17;;;6.37;;
19808;SDS011;48538;32.784;-96.802;2024-01-06T12:51:49;9.10;;;7.13;;
19808;SDS011;48538;32.784;-96.802;2024-01-06T12:54:15;8.87;;;6.13;;
19808;SDS011;48538;32.784;-96.802;2024-01-06T12:56:42;14.50;;;7.87;;
19808;SDS011;48538;32.784;-96.802;2024-01-06T12:59:08;14.67;;;8.70;;
19808;SDS011;48538;32.784;-96.802;2024-01-06T13:01:34;13.83;;;9.03;;
19808;SDS011;48538;32.784;-96.802;2024-01-06T13:04:00;4.03;;;3.63;;
19808;SDS011;48538;32.784;-96.802;2024-01-06T13:06:27;3.87;;;3.27;;
19808;SDS011;48538;32.784;-96.802;2024-01-06T13:08:53;5.30;;;4.00;;
19808;SDS011;48538;32.784;-96.802;2024-01-06T13:11:20;11.23;;;6.13;;
19808;SDS011;48538;32.784;-96.802;2024-01-06T13:13:46;7.67;;;5.67;;
19808;SDS011;48538;32.784;-96.802;2024-01-06T13:16:13;5.80;;;5.03;;
19808;SDS011;48538;32.784;-96.802;2024-01-06T13:18:39;3.30;;;3.00;;
19808;SDS011;48538;32.784;-96.802;2024-01-06T13:21:06;6.20;;;5.03;;
19808;SDS011;48538;32.784;-96.802;2024-01-06T13:23:32;5.23;;;4.10;;
19808;SDS011;48538;32.784;-96.802;2024-01-06T13:25:58;4.57;;;4.13;;
19808;SDS011;48538;32.784;-96.802;2024-01-06T13:28:25;4.13;;;3.73;;
19808;SDS011;48538;32.784;-96.802;2024-01-06T13:30:51;3.43;;;3.13;;
19808;SDS011;48538;32.784;-96.802;2024-01-06T13:33:18;4.93;;;4.33;;
19808;SDS011;48538;32.784;-96.802;2024-01-06T13:35:45;4.50;;;3.87;;
19808;SDS011;48538;32.784;-96.802;2024-01-06T13:38:12;4.10;;;3.70;;
19808;SDS011;48538;32.784;-96.802;2024-01-06T13:40:38;3.90;;;3.40;;
19808;SDS011;48538;32.784;-96.802;2024-01-06T13:43:04;3.67;;;3.37;;
19808;SDS011;48538;32.784;-96.802;2024-01-06T13:45:34;3.70;;;3.07;;
19808;SDS011;48538;32.784;-96.802;2024-01-06T13:48:01;3.83;;;3.50;;
19808;SDS011;48538;32.784;-96.802;2024-01-06T13:50:27;4.10;;;3.70;;
19808;SDS011;48538;32.784;-96.802;2024-01-06T13:52:54;5.57;;;3.63;;
19808;SDS011;48538;32.784;-96.802;2024-01-06T13:55:20;4.00;;;3.60;;
19808;SDS011;48538;32.784;-96.802;2024-01-06T13:57:46;4.27;;;3.27;;
19808;SDS011;48538;32.784;-96.802;2024-01-06T14:00:13;4.03;;;3.63;;
19808;SDS011;48538;32.784;-96.802;2024-01-06T14:02:44;3.93;;;3.53;;
19808;SDS011;48538;32.784;-96.802;2024-01-06T14:05:12;4.73;;;3.60;;
19808;SDS011;48538;32.784;-96.802;2024-01-06T14:07:39;4.03;;;3.57;;
19808;SDS011;48538;32.784;-96.802;2024-01-06T14:10:10;4.20;;;3.80;;
19808;SDS011;48538;32.784;-96.802;2024-01-06T14:12:38;4.63;;;3.87;;
19808;SDS011;48538;32.784;-96.802;2024-01-06T14:15:06;3.97;;;3.60;;